createdAt,value
2017-07-08T00:00:14.396Z,11.5
2017-07-08T00:01:16.032Z,11.2
2017-07-08T00:02:17.663Z,11.5
2017-07-08T00:03:19.298Z,11.8
2017-07-08T00:04:20.932Z,11.1
2017-07-08T00:05:22.568Z,11.0
2017-07-08T00:06:24.198Z,11.1
2017-07-08T00:07:25.830Z,11.2
2017-07-08T00:08:27.463Z,11.3
2017-07-08T00:09:29.091Z,10.9
2017-07-08T00:10:30.725Z,11.4
2017-07-08T00:11:32.356Z,10.2
2017-07-08T00:12:33.991Z,11.2
2017-07-08T00:13:35.623Z,11.3
2017-07-08T00:14:37.255Z,10.0
2017-07-08T00:15:38.888Z,10.0
2017-07-08T00:16:40.522Z,11.0
2017-07-08T00:17:42.177Z,10.5
2017-07-08T00:18:43.789Z,10.7
2017-07-08T00:19:45.436Z,9.4
2017-07-08T00:20:47.052Z,9.7
2017-07-08T00:21:48.683Z,10.5
2017-07-08T00:22:50.312Z,10.1
2017-07-08T00:23:51.944Z,10.3
2017-07-08T00:24:53.578Z,9.7
2017-07-08T00:25:55.211Z,9.7
2017-07-08T00:26:56.844Z,9.7
2017-07-08T00:27:58.474Z,9.2
2017-07-08T00:29:00.104Z,9.4
2017-07-08T00:30:01.735Z,9.5
2017-07-08T00:31:03.364Z,9.6
2017-07-08T00:32:04.996Z,9.5
2017-07-08T00:33:06.637Z,9.1
2017-07-08T00:34:08.263Z,9.1
2017-07-08T00:35:09.895Z,8.3
2017-07-08T00:36:11.526Z,8.6
2017-07-08T00:37:13.156Z,9.4
2017-07-08T00:38:14.788Z,8.5
2017-07-08T00:39:16.418Z,9.4
2017-07-08T00:40:18.051Z,9.2
2017-07-08T00:41:19.684Z,9.5
2017-07-08T00:42:21.313Z,8.7
2017-07-08T00:43:22.943Z,8.8
2017-07-08T00:44:24.575Z,8.7
2017-07-08T00:45:26.207Z,8.7
2017-07-08T00:46:27.837Z,8.7
2017-07-08T00:47:29.470Z,8.7
2017-07-08T00:48:31.102Z,8.7
2017-07-08T00:49:32.732Z,8.6
2017-07-08T00:50:34.364Z,8.1
2017-07-08T00:51:35.993Z,7.9
2017-07-08T00:52:37.623Z,7.9
2017-07-08T00:53:39.252Z,8.3
2017-07-08T00:54:40.883Z,8.2
2017-07-08T00:55:42.522Z,9.0
2017-07-08T00:56:44.147Z,8.6
2017-07-08T00:57:45.778Z,8.2
2017-07-08T00:58:47.408Z,8.4
2017-07-08T00:59:49.036Z,8.4
2017-07-08T01:00:50.666Z,8.3
2017-07-08T01:01:52.298Z,8.6
2017-07-08T01:02:53.929Z,8.1
2017-07-08T01:03:55.558Z,8.1
2017-07-08T01:04:57.187Z,8.2
2017-07-08T01:05:58.816Z,8.3
2017-07-08T01:07:00.446Z,7.9
2017-07-08T01:08:02.077Z,8.1
2017-07-08T01:09:03.711Z,8.1
2017-07-08T01:10:05.344Z,8.0
2017-07-08T01:11:06.976Z,8.4
2017-07-08T01:12:08.602Z,8.0
2017-07-08T01:13:10.233Z,8.1
2017-07-08T01:14:11.862Z,8.2
2017-07-08T01:15:13.493Z,7.9
2017-07-08T01:16:15.127Z,7.9
2017-07-08T01:17:16.761Z,7.5
2017-07-08T01:18:18.391Z,7.5
2017-07-08T01:19:20.021Z,7.8
2017-07-08T01:20:21.650Z,7.4
2017-07-08T01:21:23.279Z,8.2
2017-07-08T01:22:24.911Z,8.0
2017-07-08T01:23:26.543Z,7.5
2017-07-08T01:24:28.171Z,7.8
2017-07-08T01:25:29.802Z,7.8
2017-07-08T01:26:31.433Z,7.8
2017-07-08T01:27:33.061Z,8.0
2017-07-08T01:28:34.693Z,8.5
2017-07-08T01:29:36.324Z,8.1
2017-07-08T01:30:37.957Z,7.7
2017-07-08T01:31:39.588Z,8.2
2017-07-08T01:32:41.216Z,7.8
2017-07-08T01:33:42.848Z,8.5
2017-07-08T01:34:44.476Z,7.8
2017-07-08T01:35:46.108Z,8.3
2017-07-08T01:36:47.744Z,7.5
2017-07-08T01:37:49.373Z,8.1
2017-07-08T01:38:51.012Z,8.1
2017-07-08T01:39:52.638Z,7.5
2017-07-08T01:40:54.263Z,8.3
2017-07-08T01:41:55.892Z,7.4
2017-07-08T01:42:57.523Z,8.4
2017-07-08T01:43:59.152Z,8.1
2017-07-08T01:45:00.782Z,8.8
2017-07-08T01:46:02.413Z,8.7
2017-07-08T01:47:04.045Z,8.7
2017-07-08T01:48:05.677Z,8.9
2017-07-08T01:49:07.305Z,8.5
2017-07-08T01:50:08.936Z,8.8
2017-07-08T01:51:10.566Z,9.1
2017-07-08T01:52:12.199Z,9.0
2017-07-08T01:53:13.830Z,8.5
2017-07-08T01:54:15.460Z,9.1
2017-07-08T01:55:17.092Z,9.2
2017-07-08T01:56:18.722Z,9.1
2017-07-08T01:57:20.353Z,9.7
2017-07-08T01:58:21.985Z,9.9
2017-07-08T01:59:23.615Z,9.7
2017-07-08T02:00:25.247Z,9.3
2017-07-08T02:01:26.877Z,8.8
2017-07-08T02:02:28.508Z,9.9
2017-07-08T02:03:30.140Z,9.9
2017-07-08T02:04:31.770Z,8.7
2017-07-08T02:05:33.401Z,8.9
2017-07-08T02:06:35.032Z,9.1
2017-07-08T02:07:36.666Z,9.8
2017-07-08T02:08:38.297Z,10.1
2017-07-08T02:09:39.929Z,9.9
2017-07-08T02:10:41.561Z,9.7
2017-07-08T02:11:43.193Z,9.8
2017-07-08T02:12:44.824Z,9.8
2017-07-08T02:13:46.457Z,9.8
2017-07-08T02:14:48.090Z,10.1
2017-07-08T02:15:49.721Z,9.1
2017-07-08T02:16:51.353Z,9.8
2017-07-08T02:17:52.982Z,10.3
2017-07-08T02:18:54.617Z,10.3
2017-07-08T02:19:56.249Z,9.9
2017-07-08T02:20:57.886Z,10.4
2017-07-08T02:21:59.516Z,10.4
2017-07-08T02:23:01.148Z,9.8
2017-07-08T02:24:02.782Z,10.4
2017-07-08T02:25:04.414Z,10.2
2017-07-08T02:26:06.045Z,10.0
2017-07-08T02:27:07.680Z,10.2
2017-07-08T02:28:09.311Z,10.2
2017-07-08T02:29:10.941Z,9.9
2017-07-08T02:30:12.577Z,11.3
2017-07-08T02:31:14.240Z,10.1
2017-07-08T02:32:15.840Z,11.0
2017-07-08T02:33:17.471Z,10.7
2017-07-08T02:34:19.104Z,9.3
2017-07-08T02:35:20.739Z,10.3
2017-07-08T02:36:22.374Z,10.0
2017-07-08T02:37:24.006Z,9.9
2017-07-08T02:38:25.636Z,9.6
2017-07-08T02:39:27.273Z,9.9
2017-07-08T02:40:28.902Z,9.9
2017-07-08T02:41:30.535Z,10.2
2017-07-08T02:42:32.167Z,10.5
2017-07-08T02:43:33.800Z,9.7
2017-07-08T02:44:35.432Z,10.7
2017-07-08T02:45:37.064Z,10.2
2017-07-08T02:46:38.695Z,10.3
2017-07-08T02:47:40.328Z,10.4
2017-07-08T02:48:41.961Z,10.4
2017-07-08T02:49:43.595Z,10.2
2017-07-08T02:50:45.231Z,10.5
2017-07-08T02:51:46.861Z,10.3
2017-07-08T02:52:48.500Z,10.8
2017-07-08T02:53:50.124Z,10.1
2017-07-08T02:54:51.754Z,10.1
2017-07-08T02:55:53.389Z,11.5
2017-07-08T02:56:55.022Z,9.7
2017-07-08T02:57:56.655Z,10.3
2017-07-08T02:58:58.288Z,10.6
2017-07-08T02:59:59.918Z,10.0
2017-07-08T03:01:01.552Z,10.7
2017-07-08T03:02:03.185Z,10.4
2017-07-08T03:03:04.818Z,10.8
2017-07-08T03:04:06.451Z,9.9
2017-07-08T03:05:08.086Z,10.0
2017-07-08T03:06:09.716Z,10.3
2017-07-08T03:07:11.344Z,9.7
2017-07-08T03:08:12.975Z,10.2
2017-07-08T03:09:14.609Z,11.0
2017-07-08T03:10:16.242Z,10.8
2017-07-08T03:11:17.874Z,10.0
2017-07-08T03:12:19.513Z,10.4
2017-07-08T03:13:21.143Z,11.0
2017-07-08T03:14:22.775Z,10.6
2017-07-08T03:15:24.408Z,10.5
2017-07-08T03:16:26.040Z,11.0
2017-07-08T03:17:27.676Z,10.1
2017-07-08T03:18:29.309Z,11.7
2017-07-08T03:19:30.944Z,10.5
2017-07-08T03:20:32.577Z,11.0
2017-07-08T03:21:34.209Z,11.6
2017-07-08T03:22:35.839Z,11.3
2017-07-08T03:23:37.469Z,10.7
2017-07-08T03:24:39.102Z,11.0
2017-07-08T03:25:40.735Z,11.0
2017-07-08T03:26:42.368Z,10.8
2017-07-08T03:27:44.000Z,11.7
2017-07-08T03:28:45.631Z,11.4
2017-07-08T03:29:47.265Z,11.5
2017-07-08T03:30:48.898Z,11.7
2017-07-08T03:31:50.531Z,11.9
2017-07-08T03:32:52.163Z,11.9
2017-07-08T03:33:53.799Z,11.6
2017-07-08T03:34:55.430Z,10.9
2017-07-08T03:35:57.062Z,11.9
2017-07-08T03:36:58.694Z,11.6
2017-07-08T03:38:00.334Z,12.0
2017-07-08T03:39:01.956Z,11.6
2017-07-08T03:40:03.588Z,11.7
2017-07-08T03:41:05.225Z,11.7
2017-07-08T03:42:06.855Z,11.9
2017-07-08T03:43:08.492Z,11.5
2017-07-08T03:44:10.125Z,12.1
2017-07-08T03:45:11.755Z,12.5
2017-07-08T03:46:13.390Z,12.2
2017-07-08T03:47:15.023Z,11.6
2017-07-08T03:48:16.659Z,12.1
2017-07-08T03:49:18.290Z,12.6
2017-07-08T03:50:19.921Z,13.5
2017-07-08T03:51:21.555Z,11.8
2017-07-08T03:52:23.187Z,12.3
2017-07-08T03:53:24.821Z,12.1
2017-07-08T03:54:26.454Z,12.5
2017-07-08T03:55:28.091Z,12.3
2017-07-08T03:56:29.720Z,11.7
2017-07-08T03:57:31.350Z,11.5
2017-07-08T03:58:32.983Z,12.4
2017-07-08T03:59:34.613Z,12.5
2017-07-08T04:00:36.250Z,12.3
2017-07-08T04:01:37.882Z,12.2
2017-07-08T04:02:39.517Z,12.5
2017-07-08T04:03:41.148Z,12.4
2017-07-08T04:04:42.780Z,11.7
2017-07-08T04:05:44.411Z,12.6
2017-07-08T04:06:46.044Z,12.2
2017-07-08T04:07:47.677Z,12.4
2017-07-08T04:08:49.313Z,11.9
2017-07-08T04:09:50.946Z,12.1
2017-07-08T04:10:52.578Z,11.5
2017-07-08T04:11:54.211Z,12.2
2017-07-08T04:12:55.843Z,11.9
2017-07-08T04:13:57.478Z,12.2
2017-07-08T04:14:59.111Z,12.6
2017-07-08T04:16:00.742Z,12.2
2017-07-08T04:17:02.380Z,11.1
2017-07-08T04:18:04.187Z,12.4
2017-07-08T04:19:05.830Z,12.9
2017-07-08T04:20:07.458Z,12.1
2017-07-08T04:21:09.092Z,12.7
2017-07-08T04:22:10.724Z,12.5
2017-07-08T04:23:12.359Z,12.3
2017-07-08T04:24:14.005Z,12.9
2017-07-08T04:25:15.635Z,12.9
2017-07-08T04:26:17.268Z,12.9
2017-07-08T04:27:18.902Z,13.5
2017-07-08T04:28:20.536Z,12.3
2017-07-08T04:29:22.170Z,12.6
2017-07-08T04:30:23.830Z,12.8
2017-07-08T04:31:25.459Z,12.9
2017-07-08T04:32:27.094Z,13.6
2017-07-08T04:33:28.721Z,13.4
2017-07-08T04:34:30.356Z,13.0
2017-07-08T04:35:31.987Z,13.2
2017-07-08T04:36:33.622Z,12.7
2017-07-08T04:37:35.257Z,12.3
2017-07-08T04:38:36.892Z,12.5
2017-07-08T04:39:38.522Z,13.0
2017-07-08T04:40:40.154Z,12.7
2017-07-08T04:41:41.784Z,12.9
2017-07-08T04:42:43.415Z,12.1
2017-07-08T04:43:45.054Z,11.7
2017-07-08T04:44:46.682Z,12.1
2017-07-08T04:45:48.315Z,13.3
2017-07-08T04:46:49.949Z,12.0
2017-07-08T04:47:51.580Z,11.8
2017-07-08T04:48:53.211Z,12.2
2017-07-08T04:49:54.847Z,12.1
2017-07-08T04:50:56.480Z,11.9
2017-07-08T04:51:58.116Z,11.5
2017-07-08T04:52:59.750Z,11.6
2017-07-08T04:54:01.382Z,10.4
2017-07-08T04:55:03.017Z,11.1
2017-07-08T04:56:04.651Z,10.9
2017-07-08T04:57:06.282Z,11.5
2017-07-08T04:58:07.915Z,11.4
2017-07-08T04:59:09.551Z,11.2
2017-07-08T05:00:11.186Z,10.8
2017-07-08T05:01:12.817Z,11.4
2017-07-08T05:02:14.448Z,10.0
2017-07-08T05:03:16.083Z,10.9
2017-07-08T05:04:17.714Z,10.8
2017-07-08T05:05:19.353Z,10.6
2017-07-08T05:06:20.981Z,11.3
2017-07-08T05:07:22.616Z,11.1
2017-07-08T05:08:24.245Z,10.7
2017-07-08T05:09:25.876Z,10.7
2017-07-08T05:10:27.509Z,10.4
2017-07-08T05:11:29.143Z,10.9
2017-07-08T05:12:30.775Z,10.9
2017-07-08T05:13:32.412Z,10.8
2017-07-08T05:14:34.046Z,10.9
2017-07-08T05:15:35.679Z,10.0
2017-07-08T05:16:37.311Z,10.7
2017-07-08T05:17:38.944Z,10.6
2017-07-08T05:18:40.588Z,10.6
2017-07-08T05:19:42.220Z,10.7
2017-07-08T05:20:43.863Z,10.3
2017-07-08T05:21:45.496Z,10.9
2017-07-08T05:22:47.126Z,10.5
2017-07-08T05:23:48.757Z,10.6
2017-07-08T05:24:50.387Z,10.4
2017-07-08T05:25:52.024Z,10.7
2017-07-08T05:26:53.655Z,11.0
2017-07-08T05:27:55.291Z,10.8
2017-07-08T05:28:56.930Z,10.4
2017-07-08T05:29:58.561Z,10.9
2017-07-08T05:31:00.191Z,10.5
2017-07-08T05:32:01.824Z,10.8
2017-07-08T05:33:03.457Z,11.2
2017-07-08T05:34:05.089Z,10.5
2017-07-08T05:35:06.722Z,11.4
2017-07-08T05:36:08.360Z,10.9
2017-07-08T05:37:09.993Z,11.3
2017-07-08T05:38:11.625Z,10.9
2017-07-08T05:39:13.281Z,11.6
2017-07-08T05:40:14.894Z,10.6
2017-07-08T05:41:16.526Z,10.9
2017-07-08T05:42:18.167Z,11.3
2017-07-08T05:43:19.799Z,11.2
2017-07-08T05:44:21.432Z,12.1
2017-07-08T05:45:23.062Z,11.7
2017-07-08T05:46:24.699Z,11.3
2017-07-08T05:47:26.332Z,11.1
2017-07-08T05:48:27.966Z,11.8
2017-07-08T05:49:30.358Z,11.4
2017-07-08T05:50:32.887Z,11.5
2017-07-08T05:51:34.525Z,11.9
2017-07-08T05:52:36.160Z,11.4
2017-07-08T05:53:37.790Z,9.4
2017-07-08T05:54:39.424Z,9.1
2017-07-08T05:55:41.059Z,8.4
2017-07-08T05:56:42.690Z,8.2
2017-07-08T05:57:44.324Z,8.4
2017-07-08T05:58:46.313Z,9.0
2017-07-08T05:59:48.002Z,7.9
2017-07-08T06:00:49.731Z,7.9
2017-07-08T06:01:51.361Z,8.6
2017-07-08T06:02:52.998Z,8.5
2017-07-08T06:03:54.634Z,8.7
2017-07-08T06:04:56.262Z,8.7
2017-07-08T06:05:57.993Z,9.1
2017-07-08T06:06:59.624Z,8.9
2017-07-08T06:08:01.309Z,8.8
2017-07-08T06:09:02.884Z,9.3
2017-07-08T06:10:04.517Z,8.4
2017-07-08T06:11:06.150Z,10.0
2017-07-08T06:12:08.986Z,27.3
2017-07-08T06:13:13.870Z,37.2
2017-07-08T06:14:16.116Z,38.7
2017-07-08T06:15:20.137Z,34.6
2017-07-08T06:16:22.736Z,32.5
2017-07-08T06:17:24.626Z,31.5
2017-07-08T06:18:26.704Z,31.2
2017-07-08T06:19:28.553Z,31.2
2017-07-08T06:20:30.427Z,31.0
2017-07-08T06:21:32.058Z,30.1
2017-07-08T06:22:33.693Z,30.0
2017-07-08T06:23:36.592Z,29.2
2017-07-08T06:24:38.553Z,27.9
2017-07-08T06:25:40.509Z,27.4
2017-07-08T06:26:42.363Z,27.8
2017-07-08T06:27:44.680Z,29.2
2017-07-08T06:28:46.326Z,27.2
2017-07-08T06:29:48.000Z,27.6
2017-07-08T06:30:49.631Z,29.0
2017-07-08T06:31:51.282Z,26.5
2017-07-08T06:32:53.143Z,29.3
2017-07-08T06:33:54.778Z,27.0
2017-07-08T06:34:57.094Z,26.7
2017-07-08T06:35:58.735Z,26.1
2017-07-08T06:37:00.390Z,24.0
2017-07-08T06:38:02.027Z,33.1
2017-07-08T06:39:03.822Z,37.7
2017-07-08T06:40:05.552Z,39.8
2017-07-08T06:41:08.052Z,40.7
2017-07-08T06:42:09.697Z,41.1
2017-07-08T06:43:11.414Z,41.0
2017-07-08T06:44:13.385Z,42.2
2017-07-08T06:45:15.026Z,41.8
2017-07-08T06:46:17.816Z,40.3
2017-07-08T06:47:19.421Z,40.1
2017-07-08T06:48:21.065Z,39.6
2017-07-08T06:49:22.853Z,39.4
2017-07-08T06:50:24.451Z,41.3
2017-07-08T06:51:27.461Z,40.9
2017-07-08T06:52:29.549Z,40.5
2017-07-08T06:53:31.232Z,41.1
2017-07-08T06:54:33.550Z,42.1
2017-07-08T06:55:35.411Z,40.7
2017-07-08T06:56:37.088Z,40.2
2017-07-08T06:57:38.733Z,40.9
2017-07-08T06:58:41.065Z,38.8
2017-07-08T06:59:42.713Z,38.8
2017-07-08T07:00:44.350Z,37.7
2017-07-08T07:01:46.176Z,37.2
2017-07-08T07:02:48.701Z,37.6
2017-07-08T07:03:50.422Z,39.0
2017-07-08T07:04:52.051Z,38.2
2017-07-08T07:05:53.690Z,38.2
2017-07-08T07:06:55.325Z,36.5
2017-07-08T07:07:58.477Z,35.2
2017-07-08T07:09:00.113Z,36.7
2017-07-08T07:10:02.226Z,35.5
2017-07-08T07:11:04.004Z,34.1
2017-07-08T07:12:06.023Z,33.6
2017-07-08T07:13:07.927Z,32.2
2017-07-08T07:14:10.069Z,31.9
2017-07-08T07:15:11.876Z,30.2
2017-07-08T07:16:13.651Z,30.3
2017-07-08T07:17:15.538Z,31.3
2017-07-08T07:18:17.490Z,30.5
2017-07-08T07:19:19.325Z,29.5
2017-07-08T07:20:20.961Z,29.0
2017-07-08T07:21:22.882Z,27.4
2017-07-08T07:22:24.517Z,27.2
2017-07-08T07:23:26.153Z,27.4
2017-07-08T07:24:27.790Z,28.0
2017-07-08T07:25:29.485Z,29.0
2017-07-08T07:26:31.118Z,28.5
2017-07-08T07:27:32.752Z,28.2
2017-07-08T07:28:34.419Z,27.9
2017-07-08T07:29:36.058Z,27.9
2017-07-08T07:30:37.691Z,28.0
2017-07-08T07:31:40.282Z,26.7
2017-07-08T07:32:41.933Z,27.0
2017-07-08T07:33:43.578Z,26.7
2017-07-08T07:34:45.210Z,25.1
2017-07-08T07:35:46.846Z,21.5
2017-07-08T07:36:48.478Z,16.6
2017-07-08T07:37:50.112Z,14.4
2017-07-08T07:38:51.748Z,14.7
2017-07-08T07:39:53.381Z,13.4
2017-07-08T07:40:55.013Z,12.0
2017-07-08T07:41:56.649Z,11.7
2017-07-08T07:42:58.280Z,11.0
2017-07-08T07:43:59.917Z,10.9
2017-07-08T07:45:01.639Z,12.6
2017-07-08T07:46:03.277Z,13.0
2017-07-08T07:47:05.011Z,12.1
2017-07-08T07:48:06.643Z,13.6
2017-07-08T07:49:08.307Z,14.3
2017-07-08T07:50:09.947Z,14.2
2017-07-08T07:51:11.580Z,13.2
2017-07-08T07:52:13.212Z,13.0
2017-07-08T07:53:14.856Z,12.8
2017-07-08T07:54:16.510Z,13.5
2017-07-08T07:55:18.139Z,13.9
2017-07-08T07:56:19.774Z,14.7
2017-07-08T07:57:21.407Z,14.2
2017-07-08T07:58:23.043Z,14.1
2017-07-08T07:59:24.675Z,13.6
2017-07-08T08:00:26.309Z,13.3
2017-07-08T08:01:27.943Z,12.6
2017-07-08T08:02:29.574Z,13.0
2017-07-08T08:03:31.208Z,12.9
2017-07-08T08:04:32.840Z,13.1
2017-07-08T08:05:34.479Z,12.9
2017-07-08T08:06:36.121Z,14.1
2017-07-08T08:07:37.759Z,12.7
2017-07-08T08:08:39.391Z,12.1
2017-07-08T08:09:41.025Z,12.3
2017-07-08T08:10:42.659Z,11.4
2017-07-08T08:11:44.295Z,12.2
2017-07-08T08:12:45.931Z,12.4
2017-07-08T08:13:47.613Z,12.2
2017-07-08T08:14:49.252Z,13.7
2017-07-08T08:15:50.880Z,13.5
2017-07-08T08:16:52.517Z,12.7
2017-07-08T08:17:54.151Z,13.3
2017-07-08T08:18:55.785Z,13.7
2017-07-08T08:19:57.419Z,14.7
2017-07-08T08:20:59.081Z,13.7
2017-07-08T08:22:00.722Z,13.9
2017-07-08T08:23:02.350Z,13.6
2017-07-08T08:24:03.986Z,14.1
2017-07-08T08:25:05.619Z,13.8
2017-07-08T08:26:07.254Z,14.0
2017-07-08T08:27:08.891Z,13.7
2017-07-08T08:28:10.528Z,13.9
2017-07-08T08:29:12.214Z,13.8
2017-07-08T08:30:13.848Z,12.7
2017-07-08T08:31:15.479Z,13.2
2017-07-08T08:32:17.119Z,12.7
2017-07-08T08:33:18.756Z,12.1
2017-07-08T08:34:20.388Z,13.6
2017-07-08T08:35:22.033Z,13.8
2017-07-08T08:36:23.669Z,14.1
2017-07-08T08:37:25.301Z,13.9
2017-07-08T08:38:26.935Z,13.2
2017-07-08T08:39:28.572Z,13.4
2017-07-08T08:40:30.203Z,12.7
2017-07-08T08:41:31.889Z,12.5
2017-07-08T08:42:33.525Z,12.0
2017-07-08T08:43:35.164Z,11.9
2017-07-08T08:44:36.801Z,12.1
2017-07-08T08:45:38.433Z,11.4
2017-07-08T08:46:40.068Z,11.0
2017-07-08T08:47:41.704Z,11.7
2017-07-08T08:48:43.340Z,10.3
2017-07-08T08:49:44.969Z,10.7
2017-07-08T08:50:46.611Z,10.1
2017-07-08T08:51:48.243Z,10.7
2017-07-08T08:52:49.875Z,10.7
2017-07-08T08:53:51.507Z,10.5
2017-07-08T08:54:53.141Z,9.1
2017-07-08T08:55:54.774Z,9.8
2017-07-08T08:56:56.410Z,9.3
2017-07-08T08:57:58.044Z,9.2
2017-07-08T08:58:59.677Z,9.3
2017-07-08T09:00:01.308Z,8.1
2017-07-08T09:01:02.959Z,8.9
2017-07-08T09:02:04.593Z,9.0
2017-07-08T09:03:06.224Z,9.0
2017-07-08T09:04:07.857Z,8.8
2017-07-08T09:05:09.494Z,8.4
2017-07-08T09:06:11.122Z,7.4
2017-07-08T09:07:12.753Z,7.5
2017-07-08T09:08:14.387Z,7.2
2017-07-08T09:09:16.020Z,7.7
2017-07-08T09:10:17.655Z,7.4
2017-07-08T09:11:19.290Z,7.1
2017-07-08T09:12:20.922Z,6.7
2017-07-08T09:13:22.556Z,6.9
2017-07-08T09:14:24.185Z,6.5
2017-07-08T09:15:25.818Z,6.5
2017-07-08T09:16:27.452Z,6.9
2017-07-08T09:17:29.081Z,6.6
2017-07-08T09:18:30.719Z,7.1
2017-07-08T09:19:32.353Z,6.9
2017-07-08T09:20:33.984Z,6.5
2017-07-08T09:21:35.616Z,6.6
2017-07-08T09:22:37.248Z,6.9
2017-07-08T09:23:38.881Z,6.8
2017-07-08T09:24:40.516Z,6.8
2017-07-08T09:25:42.147Z,5.9
2017-07-08T09:26:43.781Z,5.8
2017-07-08T09:27:45.409Z,5.5
2017-07-08T09:28:47.040Z,5.8
2017-07-08T09:29:48.673Z,4.8
2017-07-08T09:30:50.304Z,5.5
2017-07-08T09:31:51.940Z,5.1
2017-07-08T09:32:53.570Z,5.2
2017-07-08T09:33:55.203Z,6.0
2017-07-08T09:34:56.833Z,6.5
2017-07-08T09:35:58.464Z,6.0
2017-07-08T09:37:00.095Z,5.8
2017-07-08T09:38:01.725Z,5.7
2017-07-08T09:39:03.358Z,6.1
2017-07-08T09:40:04.994Z,7.5
2017-07-08T09:41:07.193Z,7.1
2017-07-08T09:42:08.833Z,7.6
2017-07-08T09:43:10.526Z,7.6
2017-07-08T09:44:12.156Z,7.0
2017-07-08T09:45:14.222Z,7.7
2017-07-08T09:46:15.863Z,8.8
2017-07-08T09:47:17.502Z,9.0
2017-07-08T09:48:19.134Z,7.8
2017-07-08T09:49:20.761Z,8.4
2017-07-08T09:50:22.394Z,8.1
2017-07-08T09:51:24.722Z,7.7
2017-07-08T09:52:32.518Z,7.6
2017-07-08T09:53:34.426Z,7.7
2017-07-08T09:54:36.183Z,7.7
2017-07-08T09:55:37.871Z,7.6
2017-07-08T09:56:39.503Z,7.6
2017-07-08T09:57:41.451Z,7.4
2017-07-08T09:58:43.769Z,7.9
2017-07-08T09:59:45.833Z,7.8
2017-07-08T10:00:47.505Z,7.4
2017-07-08T10:01:49.896Z,8.0
2017-07-08T10:02:53.124Z,8.0
2017-07-08T10:03:55.069Z,7.4
2017-07-08T10:05:01.024Z,7.3
2017-07-08T10:06:03.472Z,6.9
2017-07-08T10:07:07.031Z,7.1
2017-07-08T10:08:09.171Z,7.1
2017-07-08T10:09:12.861Z,7.2
2017-07-08T10:10:20.695Z,6.9
2017-07-08T10:11:22.301Z,6.9
2017-07-08T10:12:23.939Z,7.1
2017-07-08T10:13:29.545Z,7.0
2017-07-08T10:14:31.670Z,7.7
2017-07-08T10:15:33.934Z,8.0
2017-07-08T10:16:37.901Z,8.2
2017-07-08T10:17:39.543Z,7.9
2017-07-08T10:18:41.516Z,7.9
2017-07-08T10:19:45.179Z,7.2
2017-07-08T10:20:48.911Z,7.7
2017-07-08T10:21:50.791Z,7.3
2017-07-08T10:22:52.426Z,7.2
2017-07-08T10:23:54.194Z,7.9
2017-07-08T10:25:00.615Z,7.3
2017-07-08T10:26:02.225Z,7.7
2017-07-08T10:27:05.419Z,7.6
2017-07-08T10:28:07.182Z,7.3
2017-07-08T10:29:09.724Z,7.4
2017-07-08T10:30:15.302Z,6.8
2017-07-08T10:31:18.694Z,6.8
2017-07-08T10:32:24.474Z,7.6
2017-07-08T10:33:27.493Z,7.5
2017-07-08T10:34:29.786Z,7.5
2017-07-08T10:35:32.451Z,8.6
2017-07-08T10:36:34.291Z,8.3
2017-07-08T10:37:40.466Z,8.0
2017-07-08T10:38:42.069Z,7.7
2017-07-08T10:39:43.704Z,7.7
2017-07-08T10:40:45.701Z,7.3
2017-07-08T10:41:50.022Z,6.9
2017-07-08T10:42:51.667Z,6.7
2017-07-08T10:43:53.335Z,6.6
2017-07-08T10:44:58.567Z,6.3
2017-07-08T10:46:00.810Z,5.8
2017-07-08T10:47:02.443Z,5.9
2017-07-08T10:48:04.412Z,5.9
2017-07-08T10:49:10.816Z,6.1
2017-07-08T10:50:14.008Z,6.3
2017-07-08T10:51:19.048Z,5.6
2017-07-08T10:52:23.251Z,6.1
2017-07-08T10:53:25.059Z,5.8
2017-07-08T10:54:27.914Z,5.3
2017-07-08T10:55:30.921Z,5.1
2017-07-08T10:56:32.809Z,5.5
2017-07-08T10:57:34.475Z,5.6
2017-07-08T10:58:36.099Z,5.8
2017-07-08T10:59:40.759Z,5.5
2017-07-08T11:00:42.427Z,6.1
2017-07-08T11:01:45.748Z,6.4
2017-07-08T11:02:48.658Z,6.1
2017-07-08T11:03:51.340Z,5.8
2017-07-08T11:04:52.974Z,5.9
2017-07-08T11:05:55.325Z,5.9
2017-07-08T11:06:57.794Z,5.8
2017-07-08T11:07:59.951Z,5.9
2017-07-08T11:09:02.246Z,5.6
2017-07-08T11:10:04.813Z,5.6
2017-07-08T11:11:10.227Z,5.7
2017-07-08T11:12:11.975Z,5.6
2017-07-08T11:13:13.809Z,5.9
2017-07-08T11:14:17.772Z,5.7
2017-07-08T11:15:19.402Z,5.6
2017-07-08T11:16:22.359Z,5.3
2017-07-08T11:17:24.304Z,5.2
2017-07-08T11:18:25.936Z,5.9
2017-07-08T11:19:28.141Z,5.4
2017-07-08T11:20:29.831Z,5.5
2017-07-08T11:21:31.485Z,5.3
2017-07-08T11:22:34.169Z,6.1
2017-07-08T11:23:36.619Z,6.2
2017-07-08T11:24:38.513Z,5.8
2017-07-08T11:25:40.141Z,5.8
2017-07-08T11:26:42.270Z,5.7
2017-07-08T11:27:44.298Z,6.2
2017-07-08T11:28:45.940Z,5.8
2017-07-08T11:29:49.755Z,5.6
2017-07-08T11:30:51.391Z,5.7
2017-07-08T11:31:53.516Z,5.5
2017-07-08T11:32:57.991Z,5.5
2017-07-08T11:33:59.621Z,5.4
2017-07-08T11:35:01.791Z,5.4
2017-07-08T11:36:03.431Z,5.6
2017-07-08T11:37:06.814Z,5.8
2017-07-08T11:38:08.364Z,5.6
2017-07-08T11:39:10.103Z,5.6
2017-07-08T11:40:14.304Z,5.7
2017-07-08T11:41:18.299Z,5.5
2017-07-08T11:42:20.092Z,5.6
2017-07-08T11:43:22.161Z,5.7
2017-07-08T11:44:24.492Z,5.7
2017-07-08T11:45:26.135Z,5.5
2017-07-08T11:46:27.768Z,5.5
2017-07-08T11:47:29.401Z,5.5
2017-07-08T11:48:31.205Z,5.1
2017-07-08T11:49:33.833Z,5.7
2017-07-08T11:50:35.417Z,5.4
2017-07-08T11:51:37.442Z,5.3
2017-07-08T11:52:39.533Z,5.1
2017-07-08T11:53:42.424Z,5.2
2017-07-08T11:54:44.927Z,5.2
2017-07-08T11:55:46.953Z,5.3
2017-07-08T11:56:48.596Z,5.3
2017-07-08T11:57:50.843Z,5.0
2017-07-08T11:58:53.124Z,5.1
2017-07-08T11:59:56.429Z,5.3
2017-07-08T12:00:58.539Z,5.1
2017-07-08T12:02:01.133Z,5.3
2017-07-08T12:03:02.976Z,5.0
2017-07-08T12:04:05.084Z,5.5
2017-07-08T12:05:08.432Z,5.2
2017-07-08T12:06:10.499Z,5.1
2017-07-08T12:07:12.145Z,5.4
2017-07-08T12:08:13.785Z,5.5
2017-07-08T12:09:15.441Z,5.2
2017-07-08T12:10:17.071Z,6.5
2017-07-08T12:11:18.732Z,5.7
2017-07-08T12:12:20.365Z,5.7
2017-07-08T12:13:21.998Z,5.1
2017-07-08T12:14:23.650Z,5.5
2017-07-08T12:15:25.276Z,4.9
2017-07-08T12:16:26.922Z,5.2
2017-07-08T12:17:28.544Z,4.9
2017-07-08T12:18:30.177Z,4.8
2017-07-08T12:19:31.812Z,5.2
2017-07-08T12:20:33.446Z,4.9
2017-07-08T12:21:35.080Z,5.1
2017-07-08T12:22:36.711Z,5.3
2017-07-08T12:23:38.341Z,5.2
2017-07-08T12:24:39.974Z,4.8
2017-07-08T12:25:41.610Z,4.9
2017-07-08T12:26:43.245Z,5.4
2017-07-08T12:27:44.878Z,5.0
2017-07-08T12:28:46.508Z,4.7
2017-07-08T12:29:48.139Z,5.1
2017-07-08T12:30:49.770Z,4.9
2017-07-08T12:31:51.400Z,4.6
2017-07-08T12:32:53.030Z,5.1
2017-07-08T12:33:54.664Z,4.9
2017-07-08T12:34:56.295Z,4.7
2017-07-08T12:35:57.926Z,4.8
2017-07-08T12:36:59.576Z,5.1
2017-07-08T12:38:01.224Z,4.6
2017-07-08T12:39:02.852Z,5.0
2017-07-08T12:40:05.037Z,4.9
2017-07-08T12:41:06.670Z,4.6
2017-07-08T12:42:08.631Z,4.6
2017-07-08T12:43:13.219Z,4.9
2017-07-08T12:44:15.745Z,4.7
2017-07-08T12:45:17.475Z,5.2
2017-07-08T12:46:19.959Z,5.6
2017-07-08T12:47:22.259Z,5.7
2017-07-08T12:48:23.910Z,5.4
2017-07-08T12:49:25.564Z,5.2
2017-07-08T12:50:31.270Z,5.7
2017-07-08T12:51:32.901Z,4.9
2017-07-08T12:52:34.537Z,5.3
2017-07-08T12:53:36.169Z,5.0
2017-07-08T12:54:37.831Z,4.8
2017-07-08T12:55:39.462Z,5.3
2017-07-08T12:56:41.094Z,5.6
2017-07-08T12:57:42.727Z,5.2
2017-07-08T12:58:44.362Z,5.4
2017-07-08T12:59:45.989Z,5.0
2017-07-08T13:00:47.631Z,5.1
2017-07-08T13:01:49.273Z,5.3
2017-07-08T13:02:50.899Z,5.2
2017-07-08T13:03:52.561Z,4.9
2017-07-08T13:04:54.198Z,5.0
2017-07-08T13:05:55.833Z,4.8
2017-07-08T13:06:57.461Z,5.4
2017-07-08T13:07:59.096Z,4.9
2017-07-08T13:09:00.729Z,5.1
2017-07-08T13:10:04.641Z,5.1
2017-07-08T13:11:06.275Z,5.3
2017-07-08T13:12:07.911Z,5.3
2017-07-08T13:13:11.937Z,4.9
2017-07-08T13:14:13.572Z,5.0
2017-07-08T13:15:15.203Z,5.4
2017-07-08T13:16:16.837Z,5.2
2017-07-08T13:17:18.475Z,5.3
2017-07-08T13:18:22.869Z,5.6
2017-07-08T13:19:24.501Z,5.5
2017-07-08T13:20:27.068Z,5.6
2017-07-08T13:21:28.701Z,5.4
2017-07-08T13:22:31.766Z,5.4
2017-07-08T13:23:33.403Z,5.9
2017-07-08T13:24:35.035Z,5.4
2017-07-08T13:25:36.670Z,5.4
2017-07-08T13:26:38.315Z,5.4
2017-07-08T13:27:40.487Z,5.1
2017-07-08T13:28:42.123Z,5.5
2017-07-08T13:29:43.759Z,5.5
2017-07-08T13:30:45.387Z,5.6
2017-07-08T13:31:47.023Z,5.8
2017-07-08T13:32:48.830Z,5.4
2017-07-08T13:33:50.465Z,5.1
2017-07-08T13:34:52.105Z,5.3
2017-07-08T13:35:53.744Z,5.3
2017-07-08T13:36:55.532Z,5.3
2017-07-08T13:37:57.613Z,5.1
2017-07-08T13:39:00.099Z,5.2
2017-07-08T13:40:02.165Z,4.9
2017-07-08T13:41:03.815Z,5.0
2017-07-08T13:42:05.460Z,4.9
2017-07-08T13:43:07.094Z,4.9
2017-07-08T13:44:08.782Z,4.7
2017-07-08T13:45:12.564Z,5.1
2017-07-08T13:46:14.381Z,5.2
2017-07-08T13:47:16.037Z,4.2
2017-07-08T13:48:17.689Z,4.8
2017-07-08T13:49:19.894Z,4.5
2017-07-08T13:50:22.182Z,4.5
2017-07-08T13:51:24.185Z,4.4
2017-07-08T13:52:26.219Z,4.4
2017-07-08T13:53:27.808Z,4.8
2017-07-08T13:54:29.496Z,4.8
2017-07-08T13:55:31.146Z,4.9
2017-07-08T13:56:32.849Z,4.9
2017-07-08T13:57:34.508Z,5.2